Ault, Kentucky
Current Conditions -  °F | °C
As of 10:50 AM on Saturday 25 Oct 2014 (Local Time) from KSYM Reporting Station
Overcast Overcast  
Wind Chill: 13°   Ceiling: 7000
Heat Index: 13°   Visibility: 10mi
Dew Point:   Wind: 10mph
Humidity: 72%   Direction: 210°SSW
Pressure: 30.07"   Gusts: NA
Location:  38.3543°N, 83.1837°W
Report Text: KSYM 251450Z AUTO 21009KT 10SM SCT055 BKN070 OVC085 13/08 A3007 RMK AO2
Loading
Personal Weather Stations






























Interactive Weather Map
Tropical Storm Tracking
New forecast layout! Learn more

10-Day Weather Forecast

Advertisements
Track Severe Weather on mobile